메인 페이지
METAR-TAF:

METAR-TAF

공항 :

Little Rock Air Force Base

잭슨빌, 아칸소, 미국

위도: 34-55N, 경도: 092-09W, 고도: 95m

현재 날씨관측

예보는 47분 전, 13:56시(UTC)에 발표되었습니다.
북북서6kt
온도 22°C
습도 78%
기압 1019 hPa
시정: 16.1km
고도 8000ft 상공 구름 조금

METAR: KLRF 291356Z AUTO 34006KT 10SM FEW080 22/18 A3008 RMK AO2 SLP187 T02150179

시각: 09:43 (14:43 UTC)

예보

예보는 7 시간 43분 전, 07:00시(UTC)에 발표되었습니다.
예보 대상 시간: 29일 07시부터 30일 13시까지 (UTC)
서북서6kt
시정 10km 이상
고도 3000ft 상공 구름 조금
전환 중
29일 15시부터 29일 16시까지 (UTC)
10kt, 순간 최대 풍속 15kt
시정 10km 이상
고도 3000ft 상공 구름 조금
전환 중
30일 00시부터 30일 01시까지 (UTC)
여러 방향의 바람 6kt
시정 10km 이상
맑음

TAF: KLRF 290700Z 2907/3013 29006KT 9999 FEW030 QNH2996INS BECMG 2915/2916 36010G15KT 9999 FEW030 QNH3007INS BECMG 3000/3001 VRB06KT 9999 SKC QNH3012INS TX27/2920Z TN17/2911Z

4,000개 이상의 공항 관측 자료 및 예보 (METAR 및 TAF 보고).

지도상에서 검색 가능한 기상관측소가 노란 점과 빨간 점으로 표시되어 있습니다.

기상관측소 명을 보려면 표시 위로 마우스를 이동하세요.

날씨 관측과 예보를 보려면 클릭하세요.

지도 변경 : 확대하려면 엑스 표시가 있는 녹색 버튼, 축소하려면 빼기 표시가 있는 녹색 버튼, 다음 페이지의 지도를 보려면 녹색 화살표를 클릭하세요.


METAR-TAF: